sensor_id;sensor_type;location;lat;lon;timestamp;P1;durP1;ratioP1;P2;durP2;ratioP2
12593;SDS011;6362;50.208;9.182;2022-10-30T00:00:02;19.02;;;9.90;;
12593;SDS011;6362;50.208;9.182;2022-10-30T00:02:28;18.52;;;9.07;;
12593;SDS011;6362;50.208;9.182;2022-10-30T00:04:54;21.23;;;10.10;;
12593;SDS011;6362;50.208;9.182;2022-10-30T00:07:19;25.10;;;9.63;;
12593;SDS011;6362;50.208;9.182;2022-10-30T00:09:45;18.30;;;8.85;;
12593;SDS011;6362;50.208;9.182;2022-10-30T00:12:10;18.40;;;7.80;;
12593;SDS011;6362;50.208;9.182;2022-10-30T00:14:35;18.75;;;9.35;;
12593;SDS011;6362;50.208;9.182;2022-10-30T00:17:01;23.90;;;10.60;;
12593;SDS011;6362;50.208;9.182;2022-10-30T00:19:26;19.25;;;9.18;;
12593;SDS011;6362;50.208;9.182;2022-10-30T00:21:52;18.90;;;9.20;;
12593;SDS011;6362;50.208;9.182;2022-10-30T00:24:17;20.80;;;8.70;;
12593;SDS011;6362;50.208;9.182;2022-10-30T00:26:42;15.48;;;8.23;;
12593;SDS011;6362;50.208;9.182;2022-10-30T00:29:08;18.10;;;8.10;;
12593;SDS011;6362;50.208;9.182;2022-10-30T00:31:33;16.65;;;8.07;;
12593;SDS011;6362;50.208;9.182;2022-10-30T00:33:59;20.20;;;9.25;;
12593;SDS011;6362;50.208;9.182;2022-10-30T00:36:24;15.93;;;8.75;;
12593;SDS011;6362;50.208;9.182;2022-10-30T00:38:49;18.48;;;9.13;;
12593;SDS011;6362;50.208;9.182;2022-10-30T00:41:17;14.63;;;8.23;;
12593;SDS011;6362;50.208;9.182;2022-10-30T00:43:44;18.15;;;7.68;;
12593;SDS011;6362;50.208;9.182;2022-10-30T00:46:22;18.67;;;8.20;;
12593;SDS011;6362;50.208;9.182;2022-10-30T00:48:59;14.93;;;8.60;;
12593;SDS011;6362;50.208;9.182;2022-10-30T00:51:30;16.50;;;8.10;;
12593;SDS011;6362;50.208;9.182;2022-10-30T00:53:57;15.35;;;7.45;;
12593;SDS011;6362;50.208;9.182;2022-10-30T00:56:25;18.13;;;9.07;;
12593;SDS011;6362;50.208;9.182;2022-10-30T00:58:56;16.55;;;9.10;;
12593;SDS011;6362;50.208;9.182;2022-10-30T01:01:25;20.88;;;9.70;;
12593;SDS011;6362;50.208;9.182;2022-10-30T01:03:54;15.82;;;8.57;;
12593;SDS011;6362;50.208;9.182;2022-10-30T01:06:22;15.70;;;8.52;;
12593;SDS011;6362;50.208;9.182;2022-10-30T01:08:48;15.00;;;8.23;;
12593;SDS011;6362;50.208;9.182;2022-10-30T01:11:15;18.33;;;8.38;;
12593;SDS011;6362;50.208;9.182;2022-10-30T01:13:40;16.88;;;8.23;;
12593;SDS011;6362;50.208;9.182;2022-10-30T01:19:19;19.92;;;9.02;;
12593;SDS011;6362;50.208;9.182;2022-10-30T01:27:12;16.30;;;8.90;;
12593;SDS011;6362;50.208;9.182;2022-10-30T01:29:53;14.90;;;8.18;;
12593;SDS011;6362;50.208;9.182;2022-10-30T01:35:37;14.43;;;8.32;;
12593;SDS011;6362;50.208;9.182;2022-10-30T01:38:28;11.82;;;7.53;;
12593;SDS011;6362;50.208;9.182;2022-10-30T01:40:59;18.80;;;8.68;;
12593;SDS011;6362;50.208;9.182;2022-10-30T01:43:24;16.15;;;9.52;;
12593;SDS011;6362;50.208;9.182;2022-10-30T01:45:56;16.35;;;8.40;;
12593;SDS011;6362;50.208;9.182;2022-10-30T02:02:07;14.48;;;7.63;;
12593;SDS011;6362;50.208;9.182;2022-10-30T02:04:33;15.55;;;8.30;;
12593;SDS011;6362;50.208;9.182;2022-10-30T02:06:59;14.63;;;8.25;;
12593;SDS011;6362;50.208;9.182;2022-10-30T02:09:24;20.42;;;9.30;;
12593;SDS011;6362;50.208;9.182;2022-10-30T02:11:50;16.98;;;9.30;;
12593;SDS011;6362;50.208;9.182;2022-10-30T02:14:19;18.63;;;8.32;;
12593;SDS011;6362;50.208;9.182;2022-10-30T02:16:49;20.30;;;8.85;;
12593;SDS011;6362;50.208;9.182;2022-10-30T02:19:17;15.05;;;8.55;;
12593;SDS011;6362;50.208;9.182;2022-10-30T02:21:43;15.35;;;8.13;;
12593;SDS011;6362;50.208;9.182;2022-10-30T02:24:08;19.13;;;9.23;;
12593;SDS011;6362;50.208;9.182;2022-10-30T02:26:34;19.38;;;8.68;;
12593;SDS011;6362;50.208;9.182;2022-10-30T02:28:59;17.58;;;9.52;;
12593;SDS011;6362;50.208;9.182;2022-10-30T02:31:24;14.05;;;8.75;;
12593;SDS011;6362;50.208;9.182;2022-10-30T02:33:50;18.92;;;8.95;;
12593;SDS011;6362;50.208;9.182;2022-10-30T02:36:15;15.88;;;8.77;;
12593;SDS011;6362;50.208;9.182;2022-10-30T02:38:41;16.02;;;8.18;;
12593;SDS011;6362;50.208;9.182;2022-10-30T02:41:07;14.93;;;8.10;;
12593;SDS011;6362;50.208;9.182;2022-10-30T02:43:33;16.45;;;8.68;;
12593;SDS011;6362;50.208;9.182;2022-10-30T02:45:58;14.52;;;8.27;;
12593;SDS011;6362;50.208;9.182;2022-10-30T02:48:24;15.35;;;8.23;;
12593;SDS011;6362;50.208;9.182;2022-10-30T02:50:49;18.02;;;8.73;;
12593;SDS011;6362;50.208;9.182;2022-10-30T02:53:15;17.63;;;7.78;;
12593;SDS011;6362;50.208;9.182;2022-10-30T02:55:40;13.88;;;8.52;;
12593;SDS011;6362;50.208;9.182;2022-10-30T02:58:05;12.02;;;7.43;;
12593;SDS011;6362;50.208;9.182;2022-10-30T03:00:31;14.20;;;7.72;;
12593;SDS011;6362;50.208;9.182;2022-10-30T03:02:56;19.13;;;9.02;;
12593;SDS011;6362;50.208;9.182;2022-10-30T03:05:22;16.88;;;7.90;;
12593;SDS011;6362;50.208;9.182;2022-10-30T03:07:48;14.35;;;7.72;;
12593;SDS011;6362;50.208;9.182;2022-10-30T03:10:14;15.18;;;7.93;;
12593;SDS011;6362;50.208;9.182;2022-10-30T03:12:39;20.35;;;8.07;;
12593;SDS011;6362;50.208;9.182;2022-10-30T03:15:05;13.23;;;7.75;;
12593;SDS011;6362;50.208;9.182;2022-10-30T03:17:31;16.40;;;8.10;;
12593;SDS011;6362;50.208;9.182;2022-10-30T03:19:56;17.38;;;8.52;;
12593;SDS011;6362;50.208;9.182;2022-10-30T03:22:22;15.20;;;7.57;;
12593;SDS011;6362;50.208;9.182;2022-10-30T03:24:47;15.50;;;7.85;;
12593;SDS011;6362;50.208;9.182;2022-10-30T03:27:12;15.27;;;8.00;;
12593;SDS011;6362;50.208;9.182;2022-10-30T03:29:38;15.10;;;7.70;;
12593;SDS011;6362;50.208;9.182;2022-10-30T03:32:07;15.18;;;7.38;;
12593;SDS011;6362;50.208;9.182;2022-10-30T03:34:33;16.52;;;7.00;;
12593;SDS011;6362;50.208;9.182;2022-10-30T03:36:59;14.57;;;8.35;;
12593;SDS011;6362;50.208;9.182;2022-10-30T03:39:24;16.13;;;8.48;;
12593;SDS011;6362;50.208;9.182;2022-10-30T03:41:50;21.75;;;8.63;;
12593;SDS011;6362;50.208;9.182;2022-10-30T03:44:15;16.77;;;8.82;;
12593;SDS011;6362;50.208;9.182;2022-10-30T03:46:40;13.60;;;7.82;;
12593;SDS011;6362;50.208;9.182;2022-10-30T03:49:06;15.77;;;8.10;;
12593;SDS011;6362;50.208;9.182;2022-10-30T03:51:31;19.95;;;9.00;;
12593;SDS011;6362;50.208;9.182;2022-10-30T03:53:57;12.93;;;8.15;;
12593;SDS011;6362;50.208;9.182;2022-10-30T03:56:22;18.15;;;8.43;;
12593;SDS011;6362;50.208;9.182;2022-10-30T03:58:47;15.35;;;7.53;;
12593;SDS011;6362;50.208;9.182;2022-10-30T04:01:13;13.23;;;7.40;;
12593;SDS011;6362;50.208;9.182;2022-10-30T04:03:39;14.50;;;6.90;;
12593;SDS011;6362;50.208;9.182;2022-10-30T04:06:04;14.23;;;6.45;;
12593;SDS011;6362;50.208;9.182;2022-10-30T04:08:31;15.43;;;8.30;;
12593;SDS011;6362;50.208;9.182;2022-10-30T04:10:56;16.33;;;8.15;;
12593;SDS011;6362;50.208;9.182;2022-10-30T04:13:21;12.93;;;7.75;;
12593;SDS011;6362;50.208;9.182;2022-10-30T04:15:47;16.33;;;7.70;;
12593;SDS011;6362;50.208;9.182;2022-10-30T04:18:13;16.42;;;8.52;;
12593;SDS011;6362;50.208;9.182;2022-10-30T04:20:40;12.73;;;7.97;;
12593;SDS011;6362;50.208;9.182;2022-10-30T04:23:06;15.20;;;8.13;;
12593;SDS011;6362;50.208;9.182;2022-10-30T04:25:34;16.65;;;8.27;;
12593;SDS011;6362;50.208;9.182;2022-10-30T04:28:00;14.02;;;8.02;;
12593;SDS011;6362;50.208;9.182;2022-10-30T04:30:26;18.88;;;8.98;;
12593;SDS011;6362;50.208;9.182;2022-10-30T04:32:53;18.55;;;9.48;;
12593;SDS011;6362;50.208;9.182;2022-10-30T04:35:21;13.00;;;8.32;;
12593;SDS011;6362;50.208;9.182;2022-10-30T04:37:55;13.48;;;7.93;;
12593;SDS011;6362;50.208;9.182;2022-10-30T04:40:23;20.00;;;8.63;;
12593;SDS011;6362;50.208;9.182;2022-10-30T04:42:51;12.55;;;7.50;;
12593;SDS011;6362;50.208;9.182;2022-10-30T04:45:16;17.73;;;8.57;;
12593;SDS011;6362;50.208;9.182;2022-10-30T04:47:42;16.88;;;8.07;;
12593;SDS011;6362;50.208;9.182;2022-10-30T04:50:08;14.48;;;8.32;;
12593;SDS011;6362;50.208;9.182;2022-10-30T04:52:35;19.00;;;8.90;;
12593;SDS011;6362;50.208;9.182;2022-10-30T04:55:00;15.43;;;9.25;;
12593;SDS011;6362;50.208;9.182;2022-10-30T04:57:26;22.70;;;10.18;;
12593;SDS011;6362;50.208;9.182;2022-10-30T04:59:51;19.83;;;9.55;;
12593;SDS011;6362;50.208;9.182;2022-10-30T05:02:17;21.92;;;9.55;;
12593;SDS011;6362;50.208;9.182;2022-10-30T05:04:45;20.42;;;9.20;;
12593;SDS011;6362;50.208;9.182;2022-10-30T05:07:10;15.98;;;8.90;;
12593;SDS011;6362;50.208;9.182;2022-10-30T05:09:37;15.45;;;8.40;;
12593;SDS011;6362;50.208;9.182;2022-10-30T05:12:02;15.68;;;9.05;;
12593;SDS011;6362;50.208;9.182;2022-10-30T05:14:31;15.30;;;8.25;;
12593;SDS011;6362;50.208;9.182;2022-10-30T05:16:57;17.73;;;8.02;;
12593;SDS011;6362;50.208;9.182;2022-10-30T05:19:23;16.52;;;8.38;;
12593;SDS011;6362;50.208;9.182;2022-10-30T05:21:49;15.50;;;7.25;;
12593;SDS011;6362;50.208;9.182;2022-10-30T05:24:15;15.82;;;7.97;;
12593;SDS011;6362;50.208;9.182;2022-10-30T05:26:40;13.90;;;7.47;;
12593;SDS011;6362;50.208;9.182;2022-10-30T05:29:05;12.70;;;6.60;;
12593;SDS011;6362;50.208;9.182;2022-10-30T05:31:31;21.92;;;8.98;;
12593;SDS011;6362;50.208;9.182;2022-10-30T05:33:56;14.02;;;8.00;;
12593;SDS011;6362;50.208;9.182;2022-10-30T05:36:22;14.07;;;8.32;;
12593;SDS011;6362;50.208;9.182;2022-10-30T05:38:47;13.25;;;7.65;;
12593;SDS011;6362;50.208;9.182;2022-10-30T05:41:13;16.67;;;6.95;;
12593;SDS011;6362;50.208;9.182;2022-10-30T05:43:38;15.68;;;8.60;;
12593;SDS011;6362;50.208;9.182;2022-10-30T05:46:04;17.25;;;8.85;;
12593;SDS011;6362;50.208;9.182;2022-10-30T05:48:29;16.40;;;8.25;;
12593;SDS011;6362;50.208;9.182;2022-10-30T05:50:55;14.75;;;8.52;;
12593;SDS011;6362;50.208;9.182;2022-10-30T05:53:21;14.50;;;7.20;;
12593;SDS011;6362;50.208;9.182;2022-10-30T05:55:46;12.65;;;7.80;;
12593;SDS011;6362;50.208;9.182;2022-10-30T05:58:12;14.38;;;7.72;;
12593;SDS011;6362;50.208;9.182;2022-10-30T06:00:38;13.93;;;7.45;;
12593;SDS011;6362;50.208;9.182;2022-10-30T06:03:05;11.85;;;7.20;;
12593;SDS011;6362;50.208;9.182;2022-10-30T06:05:34;16.58;;;7.30;;
12593;SDS011;6362;50.208;9.182;2022-10-30T06:08:01;14.88;;;8.00;;
12593;SDS011;6362;50.208;9.182;2022-10-30T06:10:28;15.85;;;7.43;;
12593;SDS011;6362;50.208;9.182;2022-10-30T06:12:53;12.35;;;7.25;;
12593;SDS011;6362;50.208;9.182;2022-10-30T06:15:23;11.95;;;7.25;;
12593;SDS011;6362;50.208;9.182;2022-10-30T06:17:48;15.98;;;8.13;;
12593;SDS011;6362;50.208;9.182;2022-10-30T06:20:14;17.10;;;8.48;;
12593;SDS011;6362;50.208;9.182;2022-10-30T06:22:41;14.13;;;7.05;;
12593;SDS011;6362;50.208;9.182;2022-10-30T06:25:07;11.82;;;7.82;;
12593;SDS011;6362;50.208;9.182;2022-10-30T06:27:35;15.98;;;8.73;;
12593;SDS011;6362;50.208;9.182;2022-10-30T06:30:01;13.75;;;7.85;;
12593;SDS011;6362;50.208;9.182;2022-10-30T06:32:26;20.75;;;8.45;;
12593;SDS011;6362;50.208;9.182;2022-10-30T06:34:52;17.15;;;8.30;;
12593;SDS011;6362;50.208;9.182;2022-10-30T06:37:17;13.73;;;7.60;;
12593;SDS011;6362;50.208;9.182;2022-10-30T06:39:42;16.38;;;7.93;;
12593;SDS011;6362;50.208;9.182;2022-10-30T06:42:08;13.30;;;6.93;;
12593;SDS011;6362;50.208;9.182;2022-10-30T06:44:33;12.20;;;6.53;;
12593;SDS011;6362;50.208;9.182;2022-10-30T06:46:59;13.65;;;7.15;;
12593;SDS011;6362;50.208;9.182;2022-10-30T06:49:24;15.93;;;6.78;;
12593;SDS011;6362;50.208;9.182;2022-10-30T06:51:49;12.00;;;6.57;;
12593;SDS011;6362;50.208;9.182;2022-10-30T06:54:15;10.13;;;6.30;;
12593;SDS011;6362;50.208;9.182;2022-10-30T06:56:41;9.27;;;6.20;;
12593;SDS011;6362;50.208;9.182;2022-10-30T06:59:06;11.13;;;6.60;;
12593;SDS011;6362;50.208;9.182;2022-10-30T07:01:32;11.23;;;6.38;;
12593;SDS011;6362;50.208;9.182;2022-10-30T07:03:58;10.88;;;6.55;;
12593;SDS011;6362;50.208;9.182;2022-10-30T07:06:23;12.75;;;6.78;;
12593;SDS011;6362;50.208;9.182;2022-10-30T07:08:48;11.55;;;6.43;;
12593;SDS011;6362;50.208;9.182;2022-10-30T07:11:14;17.17;;;6.80;;
12593;SDS011;6362;50.208;9.182;2022-10-30T07:13:39;15.20;;;5.95;;
12593;SDS011;6362;50.208;9.182;2022-10-30T07:16:05;8.43;;;5.57;;
12593;SDS011;6362;50.208;9.182;2022-10-30T07:18:30;8.65;;;5.65;;
12593;SDS011;6362;50.208;9.182;2022-10-30T07:20:55;11.75;;;5.63;;
12593;SDS011;6362;50.208;9.182;2022-10-30T07:23:21;12.43;;;5.90;;
12593;SDS011;6362;50.208;9.182;2022-10-30T07:25:47;11.55;;;5.75;;
12593;SDS011;6362;50.208;9.182;2022-10-30T07:28:12;12.95;;;5.60;;
12593;SDS011;6362;50.208;9.182;2022-10-30T07:30:37;10.15;;;5.57;;
12593;SDS011;6362;50.208;9.182;2022-10-30T07:33:03;15.38;;;6.82;;
12593;SDS011;6362;50.208;9.182;2022-10-30T07:35:30;11.43;;;6.03;;
12593;SDS011;6362;50.208;9.182;2022-10-30T07:38:00;13.88;;;6.32;;
12593;SDS011;6362;50.208;9.182;2022-10-30T07:40:30;12.63;;;6.00;;
12593;SDS011;6362;50.208;9.182;2022-10-30T07:42:57;9.60;;;5.57;;
12593;SDS011;6362;50.208;9.182;2022-10-30T07:45:23;11.68;;;5.90;;
12593;SDS011;6362;50.208;9.182;2022-10-30T07:47:49;11.18;;;6.47;;
12593;SDS011;6362;50.208;9.182;2022-10-30T07:50:14;12.88;;;6.22;;
12593;SDS011;6362;50.208;9.182;2022-10-30T07:52:40;14.15;;;6.47;;
12593;SDS011;6362;50.208;9.182;2022-10-30T07:55:06;11.82;;;6.20;;
12593;SDS011;6362;50.208;9.182;2022-10-30T07:57:38;14.93;;;6.05;;
12593;SDS011;6362;50.208;9.182;2022-10-30T08:00:05;11.48;;;5.55;;
12593;SDS011;6362;50.208;9.182;2022-10-30T08:02:33;9.48;;;5.10;;
12593;SDS011;6362;50.208;9.182;2022-10-30T08:04:58;15.25;;;5.70;;
12593;SDS011;6362;50.208;9.182;2022-10-30T08:07:30;11.63;;;5.65;;
12593;SDS011;6362;50.208;9.182;2022-10-30T08:09:56;12.02;;;5.10;;
12593;SDS011;6362;50.208;9.182;2022-10-30T08:12:22;9.60;;;5.18;;
12593;SDS011;6362;50.208;9.182;2022-10-30T08:14:48;11.80;;;5.30;;
12593;SDS011;6362;50.208;9.182;2022-10-30T08:17:13;11.95;;;5.15;;
12593;SDS011;6362;50.208;9.182;2022-10-30T08:19:39;9.98;;;4.97;;
12593;SDS011;6362;50.208;9.182;2022-10-30T08:22:04;13.70;;;5.38;;
12593;SDS011;6362;50.208;9.182;2022-10-30T08:24:30;13.25;;;4.78;;
12593;SDS011;6362;50.208;9.182;2022-10-30T08:26:55;14.75;;;5.35;;
12593;SDS011;6362;50.208;9.182;2022-10-30T08:29:21;12.68;;;5.47;;
12593;SDS011;6362;50.208;9.182;2022-10-30T08:31:47;11.18;;;5.03;;
12593;SDS011;6362;50.208;9.182;2022-10-30T08:34:13;7.88;;;4.25;;
12593;SDS011;6362;50.208;9.182;2022-10-30T08:36:38;12.23;;;4.95;;
12593;SDS011;6362;50.208;9.182;2022-10-30T08:39:04;12.90;;;4.80;;
12593;SDS011;6362;50.208;9.182;2022-10-30T08:41:30;10.02;;;4.53;;
12593;SDS011;6362;50.208;9.182;2022-10-30T08:43:55;10.75;;;4.97;;
12593;SDS011;6362;50.208;9.182;2022-10-30T08:46:20;10.07;;;4.55;;
12593;SDS011;6362;50.208;9.182;2022-10-30T08:48:46;10.90;;;4.95;;
12593;SDS011;6362;50.208;9.182;2022-10-30T08:51:11;10.60;;;4.47;;
12593;SDS011;6362;50.208;9.182;2022-10-30T08:53:37;11.10;;;4.95;;
12593;SDS011;6362;50.208;9.182;2022-10-30T08:56:02;9.05;;;4.35;;
12593;SDS011;6362;50.208;9.182;2022-10-30T08:58:29;13.00;;;4.35;;
12593;SDS011;6362;50.208;9.182;2022-10-30T09:00:54;9.48;;;4.75;;
12593;SDS011;6362;50.208;9.182;2022-10-30T09:03:20;11.23;;;4.32;;
12593;SDS011;6362;50.208;9.182;2022-10-30T09:05:45;9.80;;;4.82;;
12593;SDS011;6362;50.208;9.182;2022-10-30T09:08:11;12.23;;;5.55;;
12593;SDS011;6362;50.208;9.182;2022-10-30T09:10:36;8.98;;;4.47;;
12593;SDS011;6362;50.208;9.182;2022-10-30T09:13:02;11.80;;;4.15;;
12593;SDS011;6362;50.208;9.182;2022-10-30T09:15:27;10.68;;;3.97;;
12593;SDS011;6362;50.208;9.182;2022-10-30T09:18:02;9.90;;;4.20;;
12593;SDS011;6362;50.208;9.182;2022-10-30T09:20:28;13.50;;;4.10;;
12593;SDS011;6362;50.208;9.182;2022-10-30T09:22:55;13.70;;;4.22;;
12593;SDS011;6362;50.208;9.182;2022-10-30T09:25:20;10.18;;;3.80;;
12593;SDS011;6362;50.208;9.182;2022-10-30T09:27:46;9.00;;;4.43;;
12593;SDS011;6362;50.208;9.182;2022-10-30T09:30:12;8.20;;;4.22;;
12593;SDS011;6362;50.208;9.182;2022-10-30T09:32:38;11.02;;;4.40;;
12593;SDS011;6362;50.208;9.182;2022-10-30T09:35:04;12.70;;;5.05;;
12593;SDS011;6362;50.208;9.182;2022-10-30T09:37:33;10.35;;;4.22;;
12593;SDS011;6362;50.208;9.182;2022-10-30T09:40:02;9.48;;;3.90;;
12593;SDS011;6362;50.208;9.182;2022-10-30T09:50:59;10.60;;;3.75;;
12593;SDS011;6362;50.208;9.182;2022-10-30T09:53:32;13.02;;;4.20;;
12593;SDS011;6362;50.208;9.182;2022-10-30T09:56:23;15.85;;;4.03;;
12593;SDS011;6362;50.208;9.182;2022-10-30T09:59:02;8.52;;;3.78;;
12593;SDS011;6362;50.208;9.182;2022-10-30T10:04:45;9.38;;;3.40;;
12593;SDS011;6362;50.208;9.182;2022-10-30T10:07:19;9.27;;;3.50;;
12593;SDS011;6362;50.208;9.182;2022-10-30T10:09:48;10.27;;;3.42;;
12593;SDS011;6362;50.208;9.182;2022-10-30T10:12:24;10.85;;;3.45;;
12593;SDS011;6362;50.208;9.182;2022-10-30T10:14:54;11.90;;;3.97;;
12593;SDS011;6362;50.208;9.182;2022-10-30T10:17:30;8.63;;;3.40;;
12593;SDS011;6362;50.208;9.182;2022-10-30T10:19:59;10.48;;;3.45;;
12593;SDS011;6362;50.208;9.182;2022-10-30T10:22:32;10.70;;;3.33;;
12593;SDS011;6362;50.208;9.182;2022-10-30T10:25:05;9.52;;;3.50;;
12593;SDS011;6362;50.208;9.182;2022-10-30T10:27:51;8.43;;;3.63;;
12593;SDS011;6362;50.208;9.182;2022-10-30T10:30:30;10.70;;;3.47;;
12593;SDS011;6362;50.208;9.182;2022-10-30T10:33:09;12.70;;;3.17;;
12593;SDS011;6362;50.208;9.182;2022-10-30T10:47:38;10.25;;;3.20;;
12593;SDS011;6362;50.208;9.182;2022-10-30T10:50:23;13.05;;;3.70;;
12593;SDS011;6362;50.208;9.182;2022-10-30T10:53:04;15.55;;;3.58;;
12593;SDS011;6362;50.208;9.182;2022-10-30T10:55:35;9.73;;;3.42;;
12593;SDS011;6362;50.208;9.182;2022-10-30T10:58:09;11.05;;;3.53;;
12593;SDS011;6362;50.208;9.182;2022-10-30T11:00:40;10.50;;;3.05;;
12593;SDS011;6362;50.208;9.182;2022-10-30T11:03:10;10.80;;;2.90;;
12593;SDS011;6362;50.208;9.182;2022-10-30T11:08:39;12.50;;;3.30;;
12593;SDS011;6362;50.208;9.182;2022-10-30T11:11:05;8.82;;;3.20;;
12593;SDS011;6362;50.208;9.182;2022-10-30T11:13:35;10.35;;;3.17;;
12593;SDS011;6362;50.208;9.182;2022-10-30T11:18:43;8.45;;;2.88;;
12593;SDS011;6362;50.208;9.182;2022-10-30T11:21:14;8.73;;;2.78;;
12593;SDS011;6362;50.208;9.182;2022-10-30T11:23:44;10.00;;;2.83;;
12593;SDS011;6362;50.208;9.182;2022-10-30T11:31:26;8.32;;;2.42;;
12593;SDS011;6362;50.208;9.182;2022-10-30T11:33:54;13.60;;;3.25;;
12593;SDS011;6362;50.208;9.182;2022-10-30T11:36:23;11.27;;;3.00;;
12593;SDS011;6362;50.208;9.182;2022-10-30T11:38:50;10.65;;;2.25;;
12593;SDS011;6362;50.208;9.182;2022-10-30T11:41:17;12.77;;;2.30;;
12593;SDS011;6362;50.208;9.182;2022-10-30T11:43:44;7.72;;;2.50;;
12593;SDS011;6362;50.208;9.182;2022-10-30T11:46:14;11.10;;;2.55;;
12593;SDS011;6362;50.208;9.182;2022-10-30T11:48:46;8.98;;;2.45;;
12593;SDS011;6362;50.208;9.182;2022-10-30T11:51:26;8.98;;;2.50;;
12593;SDS011;6362;50.208;9.182;2022-10-30T11:54:03;10.48;;;2.08;;
12593;SDS011;6362;50.208;9.182;2022-10-30T11:56:30;12.98;;;2.63;;
12593;SDS011;6362;50.208;9.182;2022-10-30T11:58:59;8.73;;;2.38;;
12593;SDS011;6362;50.208;9.182;2022-10-30T12:01:28;9.50;;;2.17;;
12593;SDS011;6362;50.208;9.182;2022-10-30T12:03:55;9.18;;;2.47;;
12593;SDS011;6362;50.208;9.182;2022-10-30T12:06:36;7.78;;;2.08;;
12593;SDS011;6362;50.208;9.182;2022-10-30T12:09:03;9.10;;;2.13;;
12593;SDS011;6362;50.208;9.182;2022-10-30T12:11:46;9.65;;;2.08;;
12593;SDS011;6362;50.208;9.182;2022-10-30T12:14:22;9.82;;;2.30;;
12593;SDS011;6362;50.208;9.182;2022-10-30T12:16:51;11.27;;;1.90;;
12593;SDS011;6362;50.208;9.182;2022-10-30T12:19:21;9.85;;;2.33;;
12593;SDS011;6362;50.208;9.182;2022-10-30T12:21:52;8.23;;;2.17;;
12593;SDS011;6362;50.208;9.182;2022-10-30T12:26:55;9.45;;;2.10;;
12593;SDS011;6362;50.208;9.182;2022-10-30T12:29:26;8.25;;;2.45;;
12593;SDS011;6362;50.208;9.182;2022-10-30T12:32:15;10.85;;;2.42;;
12593;SDS011;6362;50.208;9.182;2022-10-30T12:34:44;7.25;;;1.98;;
12593;SDS011;6362;50.208;9.182;2022-10-30T12:37:49;8.70;;;1.85;;
12593;SDS011;6362;50.208;9.182;2022-10-30T12:40:20;7.30;;;2.30;;
12593;SDS011;6362;50.208;9.182;2022-10-30T12:42:57;8.23;;;1.77;;
12593;SDS011;6362;50.208;9.182;2022-10-30T12:45:30;10.32;;;2.00;;
12593;SDS011;6362;50.208;9.182;2022-10-30T12:48:16;7.50;;;1.73;;
12593;SDS011;6362;50.208;9.182;2022-10-30T12:56:54;5.30;;;1.60;;
12593;SDS011;6362;50.208;9.182;2022-10-30T13:04:20;6.47;;;1.60;;
12593;SDS011;6362;50.208;9.182;2022-10-30T13:06:52;7.57;;;2.08;;
12593;SDS011;6362;50.208;9.182;2022-10-30T13:09:40;7.28;;;2.13;;
12593;SDS011;6362;50.208;9.182;2022-10-30T13:12:16;7.13;;;2.13;;
12593;SDS011;6362;50.208;9.182;2022-10-30T13:17:13;5.53;;;1.80;;
12593;SDS011;6362;50.208;9.182;2022-10-30T13:19:40;8.00;;;1.83;;
12593;SDS011;6362;50.208;9.182;2022-10-30T13:22:22;8.30;;;2.00;;
12593;SDS011;6362;50.208;9.182;2022-10-30T13:30:48;8.70;;;1.83;;
12593;SDS011;6362;50.208;9.182;2022-10-30T13:41:43;8.50;;;1.85;;
12593;SDS011;6362;50.208;9.182;2022-10-30T13:44:50;9.00;;;1.92;;
12593;SDS011;6362;50.208;9.182;2022-10-30T13:53:25;6.30;;;2.05;;
12593;SDS011;6362;50.208;9.182;2022-10-30T13:55:54;6.05;;;1.80;;
12593;SDS011;6362;50.208;9.182;2022-10-30T14:01:19;4.95;;;1.70;;
12593;SDS011;6362;50.208;9.182;2022-10-30T14:06:44;5.93;;;1.83;;
12593;SDS011;6362;50.208;9.182;2022-10-30T14:09:34;5.30;;;1.63;;
12593;SDS011;6362;50.208;9.182;2022-10-30T14:20:36;6.72;;;1.98;;
12593;SDS011;6362;50.208;9.182;2022-10-30T14:23:11;6.47;;;1.80;;
12593;SDS011;6362;50.208;9.182;2022-10-30T14:25:43;7.38;;;2.10;;
12593;SDS011;6362;50.208;9.182;2022-10-30T14:28:18;11.85;;;2.75;;
12593;SDS011;6362;50.208;9.182;2022-10-30T14:30:45;8.45;;;2.15;;
12593;SDS011;6362;50.208;9.182;2022-10-30T14:36:14;14.30;;;4.32;;
12593;SDS011;6362;50.208;9.182;2022-10-30T14:38:40;9.77;;;3.35;;
12593;SDS011;6362;50.208;9.182;2022-10-30T14:41:26;7.47;;;2.53;;
12593;SDS011;6362;50.208;9.182;2022-10-30T14:49:45;7.60;;;2.30;;
12593;SDS011;6362;50.208;9.182;2022-10-30T14:52:22;7.68;;;2.88;;
12593;SDS011;6362;50.208;9.182;2022-10-30T14:57:50;12.15;;;3.47;;
12593;SDS011;6362;50.208;9.182;2022-10-30T15:03:09;8.57;;;2.72;;
12593;SDS011;6362;50.208;9.182;2022-10-30T15:05:44;13.55;;;2.50;;
12593;SDS011;6362;50.208;9.182;2022-10-30T15:13:55;8.48;;;2.42;;
12593;SDS011;6362;50.208;9.182;2022-10-30T15:16:23;11.10;;;2.67;;
12593;SDS011;6362;50.208;9.182;2022-10-30T15:18:54;7.18;;;2.35;;
12593;SDS011;6362;50.208;9.182;2022-10-30T15:21:25;9.98;;;2.75;;
12593;SDS011;6362;50.208;9.182;2022-10-30T15:23:54;12.07;;;2.00;;
12593;SDS011;6362;50.208;9.182;2022-10-30T15:26:22;12.38;;;2.15;;
12593;SDS011;6362;50.208;9.182;2022-10-30T15:28:53;8.98;;;2.33;;
12593;SDS011;6362;50.208;9.182;2022-10-30T15:33:46;7.70;;;2.25;;
12593;SDS011;6362;50.208;9.182;2022-10-30T15:36:15;7.53;;;2.10;;
12593;SDS011;6362;50.208;9.182;2022-10-30T15:38:42;7.97;;;2.03;;
12593;SDS011;6362;50.208;9.182;2022-10-30T15:41:08;8.77;;;2.00;;
12593;SDS011;6362;50.208;9.182;2022-10-30T15:43:34;10.13;;;2.55;;
12593;SDS011;6362;50.208;9.182;2022-10-30T15:46:09;7.70;;;1.80;;
12593;SDS011;6362;50.208;9.182;2022-10-30T15:48:35;7.15;;;2.20;;
12593;SDS011;6362;50.208;9.182;2022-10-30T15:51:05;11.85;;;2.45;;
12593;SDS011;6362;50.208;9.182;2022-10-30T15:56:13;7.95;;;2.42;;
12593;SDS011;6362;50.208;9.182;2022-10-30T15:58:47;8.95;;;2.40;;
12593;SDS011;6362;50.208;9.182;2022-10-30T16:06:47;6.93;;;2.00;;
12593;SDS011;6362;50.208;9.182;2022-10-30T16:09:14;7.28;;;2.47;;
12593;SDS011;6362;50.208;9.182;2022-10-30T16:11:40;7.60;;;2.35;;
12593;SDS011;6362;50.208;9.182;2022-10-30T16:14:06;6.65;;;2.58;;
12593;SDS011;6362;50.208;9.182;2022-10-30T16:16:37;9.00;;;3.03;;
12593;SDS011;6362;50.208;9.182;2022-10-30T16:19:03;7.75;;;2.13;;
12593;SDS011;6362;50.208;9.182;2022-10-30T16:21:29;10.50;;;2.22;;
12593;SDS011;6362;50.208;9.182;2022-10-30T16:23:56;12.82;;;2.15;;
12593;SDS011;6362;50.208;9.182;2022-10-30T16:28:58;9.27;;;2.50;;
12593;SDS011;6362;50.208;9.182;2022-10-30T16:31:32;7.05;;;2.55;;
12593;SDS011;6362;50.208;9.182;2022-10-30T16:34:00;10.02;;;4.47;;
12593;SDS011;6362;50.208;9.182;2022-10-30T16:36:28;14.55;;;7.53;;
12593;SDS011;6362;50.208;9.182;2022-10-30T16:38:54;12.52;;;6.13;;
12593;SDS011;6362;50.208;9.182;2022-10-30T16:41:21;11.48;;;4.72;;
12593;SDS011;6362;50.208;9.182;2022-10-30T16:46:53;9.10;;;2.70;;
12593;SDS011;6362;50.208;9.182;2022-10-30T16:49:26;10.82;;;3.30;;
12593;SDS011;6362;50.208;9.182;2022-10-30T16:56:57;9.88;;;3.92;;
12593;SDS011;6362;50.208;9.182;2022-10-30T16:59:32;7.28;;;3.67;;
12593;SDS011;6362;50.208;9.182;2022-10-30T17:02:14;11.15;;;4.78;;
12593;SDS011;6362;50.208;9.182;2022-10-30T17:05:07;12.38;;;5.55;;
12593;SDS011;6362;50.208;9.182;2022-10-30T17:07:36;13.15;;;5.68;;
12593;SDS011;6362;50.208;9.182;2022-10-30T17:10:02;15.85;;;5.47;;
12593;SDS011;6362;50.208;9.182;2022-10-30T17:12:48;9.60;;;3.88;;
12593;SDS011;6362;50.208;9.182;2022-10-30T17:15:13;10.50;;;3.80;;
12593;SDS011;6362;50.208;9.182;2022-10-30T17:17:41;6.82;;;2.70;;
12593;SDS011;6362;50.208;9.182;2022-10-30T17:22:45;9.23;;;3.38;;
12593;SDS011;6362;50.208;9.182;2022-10-30T17:25:22;9.00;;;3.40;;
12593;SDS011;6362;50.208;9.182;2022-10-30T17:27:59;9.52;;;3.83;;
12593;SDS011;6362;50.208;9.182;2022-10-30T17:32:55;8.52;;;2.80;;
12593;SDS011;6362;50.208;9.182;2022-10-30T17:35:21;7.97;;;3.08;;